Edgerton, OH

10:45 AM EST on March 01, 2015 (GMT -0500)
APRSWXNET Bryan OH US | Change Station
CLOSE
Current Station
Personal Weather Station
Location: Bryan, OH
Elevation: 800 ft
Nearby Weather Stations

Elev 800 ft 41.48 °N, 84.59 °W | Updated 29 minutes ago

Snow
Snow
21 °F
Feels Like 21 °F
N
0
Wind Variable Wind from South
Gusts 0.0 mph

Today
High -- | Low -- °F
--% Chance of Precip.
Yesterday
High -- | Low -- °F
Precip. -- in
7:13 AM 6:29 PM
Waxing Gibbous, 85% visible
Pressure 30.38 in
Visibility 1.0 miles
Clouds Mostly Cloudy 2500 ft
Overcast 3300 ft
Windchill 21 °F
Dew Point 17 °F
Humidity 85%
Rainfall 0.13 in
Snow Depth Not available.
UV 1 out of 12
Pollen .40 out of 12
Air Quality Not available.
Flu Activity Not available.
SPECI KDFI 011509Z AUTO 00000KT 1SM -SN BR BKN025 OVC033 M07/M09 A3038 RMK AO2 P0000 T10671089

More Conditions Fewer Conditions

Pressure 30.38 in
Visibility 1.0 miles
Clouds Mostly Cloudy 2500 ft
Overcast 3300 ft
Windchill 21 °F
Dew Point 17 °F
Humidity 85%
Rainfall 0.13 in
Snow Depth Not available.
UV 1 out of 12
Pollen .40 out of 12
Air Quality Not available.
Flu Activity Not available.
SPECI KDFI 011509Z AUTO 00000KT 1SM -SN BR BKN025 OVC033 M07/M09 A3038 RMK AO2 P0000 T10671089

More Conditions Fewer Conditions

10-Day Weather Forecast

Almanac

Astronomy

Mar. 01, 2015 Rise Set
Actual Time
Civil Twilight
Nautical Twilight
Astronomical Twilight
Moon
Length of Visible Light
Length of Day
Tomorrow will be .
, % of the Moon is Illuminated

Today's Extremes

State Highs State Lows

Community

WunderPhotos

Upload Photos

1,801,435 photos uploaded!

WunderBlogs® & News

Nearby

Air Quality

  Air Quality AQ Index Pollutant
Not available.

Snow Depth

Station Depth Elevation

Earthquake Activity

City Distance Mag. Time & Date
Minimum magnitude displayed is 2.5.

Coastal Water Temperatures

Place Temperature

Nearby Weather Stations